Flight Track Log - Related Links

Times and Time Zones

All times are in EDT time to prevent confusion due to time zone crossing. See the EJA829P flight status page for this flight to view local times or setup timezone preferences in your user account.

Time Position Orientation Groundspeed Altitude Reporting Facility
EDT Latitude Longitude Course Direction KTS MPH feet Rate Location/Type
Thu 07:57:55 PM 41.7500 -87.7833 180° South 180 207 2,100  Level Chicago TRACON
Thu 07:59:25 PM 41.6828 -87.8333 209° Southwest 237 273 6,000 2,724 Climbing Chicago Center
Thu 08:00:27 PM 41.6067 -87.7983 161° South 282 325 9,000 2,758 Climbing Chicago Center
Thu 08:01:29 PM 41.5278 -87.7661 163° South 291 335 11,700 2,516 Climbing Chicago Center
Thu 08:02:31 PM 41.4456 -87.7350 164° South 303 349 14,200 2,323 Climbing Chicago Center
Thu 08:03:00 PM 41.2885 -87.7167 180° South  Level FlightAware Approximate
Thu 08:03:33 PM 41.3583 -87.7261 176° South 316 364 16,500  Level Chicago Center
Thu 08:04:35 PM 41.2686 -87.7261 180° South 320 368 18,600 2,129 Climbing Chicago Center
Thu 08:05:37 PM 41.1561 -87.7189 177° South 335 386 20,900 1,839 Climbing Chicago Center
Thu 08:06:39 PM 41.0583 -87.7050 174° South 349 402 22,400 1,403 Climbing Chicago Center
Thu 08:07:41 PM 40.9572 -87.6917 174° South 364 419 23,800 1,500 Climbing Chicago Center
Thu 08:08:43 PM 40.8556 -87.6775 174° South 368 423 25,500 1,548 Climbing Chicago Center
Thu 08:09:45 PM 40.7536 -87.6642 174° South 369 425 27,000 1,597 Climbing Chicago Center
Thu 08:10:47 PM 40.6308 -87.6478 174° South 370 426 28,800 1,584 Climbing Chicago Center
Thu 08:11:50 PM 40.5300 -87.6336 174° South 367 422 30,300 1,440 Climbing Chicago Center
Thu 08:12:52 PM 40.4278 -87.6206 174° South 370 426 31,800 1,306 Climbing Chicago Center
Thu 08:13:54 PM 40.3256 -87.6083 175° South 370 426 33,000 1,065 Climbing Chicago Center
Thu 08:14:56 PM 40.2214 -87.6125 182° South 375 432 34,000 513 Climbing Chicago Center
Thu 08:15:51 PM 40.1139 -87.6186 182° South 391 450 34,000 335 Level Indianapolis Center
Thu 08:17:55 PM 39.8892 -87.5856 174° South 413 475 35,000 324 Climbing Indianapolis Center
Thu 08:18:56 PM 39.7583 -87.5219 160° South 422 486 35,000  Level Indianapolis Center
Thu 08:19:58 PM 39.6478 -87.4647 158° South 428 493 35,000  Level Indianapolis Center
Thu 08:20:59 PM 39.5372 -87.4058 158° South 432 497 35,000  Level Indianapolis Center
Thu 08:22:01 PM 39.4264 -87.3469 158° South 434 499 35,000  Level Indianapolis Center
Thu 08:23:03 PM 39.3147 -87.2897 158° South 434 499 35,000  Level Indianapolis Center
Thu 08:24:04 PM 39.2042 -87.2292 157° South 434 499 35,000  Level Indianapolis Center
Thu 08:25:06 PM 39.1014 -87.1456 148° Southeast 433 498 35,000  Level Indianapolis Center
Thu 08:26:07 PM 38.9775 -87.0478 148° Southeast 434 499 35,000  Level Indianapolis Center
Thu 08:27:09 PM 38.8658 -86.9900 158° South 430 495 35,000  Level Indianapolis Center
Thu 08:28:10 PM 38.7525 -86.9336 159° South 433 498 35,000 244 Level Indianapolis Center
Thu 08:29:12 PM 38.6422 -86.8781 159° South 423 487 35,500 780 Climbing Indianapolis Center
Thu 08:30:13 PM 38.5356 -86.8242 158° South 409 471 36,600 732 Climbing Indianapolis Center
Thu 08:31:15 PM 38.4292 -86.7722 159° South 403 464 37,000 195 Climbing Indianapolis Center
Thu 08:32:16 PM 38.3164 -86.7347 165° South 411 473 37,000  Level Indianapolis Center
Thu 08:33:18 PM 38.1997 -86.7128 172° South 416 479 37,000  Level Indianapolis Center
Thu 08:34:19 PM 38.0842 -86.6869 170° South 417 480 37,000 341 Level Indianapolis Center
Thu 08:35:21 PM 37.9708 -86.6606 170° South 412 474 37,700 927 Climbing Indianapolis Center
Thu 08:36:22 PM 37.8628 -86.6397 171° South 394 453 38,900 1,073 Climbing Indianapolis Center
Thu 08:37:24 PM 37.7553 -86.6353 178° South 384 442 39,900 829 Climbing Indianapolis Center
Thu 08:38:25 PM 37.6517 -86.6311 178° South 375 432 40,600 537 Climbing Indianapolis Center
Thu 08:39:27 PM 37.5378 -86.6231 177° South 360 414 41,000 195 Climbing Indianapolis Center
Thu 08:40:28 PM 37.4356 -86.6081 173° South 366 421 41,000  Level Indianapolis Center
Thu 08:41:30 PM 37.3319 -86.5822 169° South 374 430 41,000  Level Indianapolis Center
Thu 08:42:31 PM 37.2272 -86.5564 169° South 377 434 41,000  Level Indianapolis Center
Thu 08:43:33 PM 37.1283 -86.4994 155° Southeast 384 442 41,000  Level Indianapolis Center
Thu 08:44:14 PM 37.0642 -86.4547 151° Southeast 383 441 41,000  Level Memphis Center
Thu 08:45:14 PM 36.9642 -86.3897 153° Southeast 399 459 41,000  Level Memphis Center
Thu 08:46:14 PM 36.8622 -86.3272 154° Southeast 404 465 41,000  Level Memphis Center
Thu 08:47:14 PM 36.7494 -86.2553 153° Southeast 404 465 41,000 -500 Level Memphis Center
Thu 08:48:14 PM 36.6450 -86.1908 154° Southeast 411 473 40,000 -1,550 Descending Memphis Center
Thu 08:49:14 PM 36.5469 -86.1261 152° Southeast 411 473 37,900 -2,050 Descending Memphis Center
Thu 08:50:14 PM 36.4608 -86.0453 143° Southeast 397 457 35,900 -1,867 Descending Memphis Center
Thu 08:50:44 PM 36.4219 -86.0075 142° Southeast 384 442 35,100 -1,174 Descending Indianapolis Center
Thu 08:51:46 PM 36.3361 -85.9203 141° Southeast 392 451 34,100 -600 Descending Indianapolis Center
Thu 08:54:14 PM 36.1275 -85.7058 140° Southeast 398 458 33,000 -317 Descending Memphis Center
Thu 08:55:14 PM 36.0400 -85.6156 140° Southeast 409 471 33,000 -100 Level Atlanta Center
Thu 08:56:14 PM 35.9639 -85.5114 132° Southeast 409 471 32,800 -1,041 Descending Atlanta Center
Thu 08:57:15 PM 35.8942 -85.4075 130° Southeast 402 463 30,900 -2,100 Descending Atlanta Center
Thu 08:58:14 PM 35.7886 -85.3444 154° Southeast 382 440 28,600 -1,462 Descending Atlanta Center
Thu 08:59:14 PM 35.6867 -85.3172 168° South 367 422 28,000 -300 Descending Atlanta Center
Thu 09:00:14 PM 35.5806 -85.2925 169° South 373 429 28,000  Level Atlanta Center
Thu 09:01:14 PM 35.4744 -85.2681 169° South 386 444 28,000 -400 Level Atlanta Center
Thu 09:02:14 PM 35.3744 -85.2461 170° South 386 444 27,200 -1,150 Descending Atlanta Center
Thu 09:03:14 PM 35.2703 -85.2242 170° South 381 438 25,700 -1,500 Descending Atlanta Center
Thu 09:04:14 PM 35.1683 -85.2000 169° South 381 438 24,200 -1,800 Descending Atlanta Center
Thu 09:05:14 PM 35.0642 -85.1781 170° South 381 438 22,100 -2,050 Descending Atlanta Center
Thu 09:06:14 PM 34.9600 -85.1589 171° South 386 444 20,100 -2,000 Descending Atlanta Center
Thu 09:07:14 PM 34.8581 -85.1322 168° South 386 444 18,100 -1,650 Descending Atlanta Center
Thu 09:08:14 PM 34.7814 -85.0606 142° Southeast 364 419 16,800 -1,400 Descending Atlanta Center
Thu 09:09:14 PM 34.7047 -84.9889 142° Southeast 353 406 15,300 -1,450 Descending Atlanta Center
Thu 09:10:14 PM 34.6383 -84.9200 140° Southeast 353 406 13,900 -1,450 Descending Atlanta Center
Thu 09:11:14 PM 34.5639 -84.8536 144° Southeast 342 394 12,400 -1,500 Descending Atlanta Center
Thu 09:12:14 PM 34.4828 -84.7872 146° Southeast 336 387 10,900 -1,500 Descending Atlanta Center
Thu 09:13:14 PM 34.4206 -84.7186 138° Southeast 314 361 9,400 -1,400 Descending Atlanta Center
Thu 09:14:14 PM 34.3731 -84.6478 129° Southeast 292 336 8,100 -1,200 Descending Atlanta Center
Thu 09:15:14 PM 34.3253 -84.5772 129° Southeast 272 313 7,000 -550 Descending Atlanta Center
Thu 09:16:14 PM 34.2756 -84.5089 131° Southeast 267 307 7,000 -100 Level Atlanta Center
Thu 09:17:14 PM 34.2256 -84.4383 131° Southeast 267 307 6,800 -650 Descending Atlanta Center
Thu 09:18:14 PM 34.1800 -84.3728 130° Southeast 262 302 5,700 -950 Descending Atlanta Center
Thu 09:19:14 PM 34.1403 -84.3225 134° Southeast 248 285 4,900 -1,050 Descending Atlanta Center
Thu 09:20:14 PM 34.0861 -84.2997 161° South 219 252 3,600 -950 Descending Atlanta Center
Thu 09:21:14 PM 34.0300 -84.2794 163° South 213 245 3,000 -300 Descending Atlanta Center
Thu 09:22:14 PM 33.9797 -84.2617 164° South 195 224 3,000 -400 Level Atlanta Center
Thu 09:23:14 PM 33.9381 -84.2767 197° South 164 189 2,200 -762 Descending Atlanta Center
Thu 09:24:20 PM 33.9000 -84.2833 188° South 119 137 1,400 -727 Descending Atlanta TRACON
Thu 09:26:00 PM 33.8667 -84.3000 170° South  Level FlightAware Approximate

Login

Don't have an account? Register now (free) for customized features, flight alerts, and more!